createdAt,value
2018-11-21T00:01:53.972Z,17.70
2018-11-21T00:04:23.888Z,17.03
2018-11-21T00:06:53.831Z,16.47
2018-11-21T00:09:23.886Z,16.43
2018-11-21T00:11:56.559Z,18.57
2018-11-21T00:14:26.895Z,15.00
2018-11-21T00:16:56.690Z,17.93
2018-11-21T00:19:26.689Z,16.43
2018-11-21T00:21:56.555Z,18.50
2018-11-21T00:24:26.542Z,19.47
2018-11-21T00:26:56.354Z,17.10
2018-11-21T00:29:26.656Z,18.00
2018-11-21T00:31:56.680Z,16.67
2018-11-21T00:34:26.580Z,15.53
2018-11-21T00:37:08.274Z,16.33
2018-11-21T00:39:38.734Z,16.63
2018-11-21T00:42:27.183Z,19.20
2018-11-21T00:44:57.225Z,17.23
2018-11-21T00:47:27.249Z,16.93
2018-11-21T00:49:57.103Z,17.10
2018-11-21T00:52:26.966Z,18.03
2018-11-21T00:54:57.170Z,15.70
2018-11-21T00:57:27.029Z,19.33
2018-11-21T00:59:56.974Z,17.83
2018-11-21T01:02:26.999Z,18.33
2018-11-21T01:04:56.905Z,16.53
2018-11-21T01:07:26.831Z,16.23
2018-11-21T01:09:56.861Z,17.37
2018-11-21T01:12:29.443Z,17.73
2018-11-21T01:14:59.541Z,19.17
2018-11-21T01:17:29.785Z,18.03
2018-11-21T01:19:59.666Z,17.50
2018-11-21T01:22:29.593Z,18.67
2018-11-21T01:24:59.448Z,19.27
2018-11-21T01:27:29.626Z,18.73
2018-11-21T01:29:59.988Z,19.77
2018-11-21T01:35:19.947Z,18.87
2018-11-21T01:37:50.035Z,19.90
2018-11-21T01:40:19.954Z,18.67
2018-11-21T01:45:53.603Z,16.83
2018-11-21T01:48:23.558Z,20.10
2018-11-21T01:50:53.616Z,17.40
2018-11-21T01:53:24.503Z,17.97
2018-11-21T01:55:54.357Z,17.43
2018-11-21T01:58:24.280Z,19.70
2018-11-21T02:00:54.452Z,18.50
2018-11-21T02:03:24.449Z,18.40
2018-11-21T02:05:54.254Z,19.53
2018-11-21T02:08:24.129Z,15.33
2018-11-21T02:10:54.125Z,18.83
2018-11-21T02:13:43.032Z,18.43
2018-11-21T02:16:31.853Z,17.97
2018-11-21T02:19:33.822Z,17.47
2018-11-21T02:22:03.676Z,18.57
2018-11-21T02:24:33.839Z,18.80
2018-11-21T02:27:06.156Z,16.60
2018-11-21T02:29:36.179Z,21.90
2018-11-21T02:32:52.926Z,18.73
2018-11-21T02:36:00.822Z,19.47
2018-11-21T02:38:31.290Z,19.30
2018-11-21T02:41:01.330Z,20.53
2018-11-21T02:43:32.036Z,20.47
2018-11-21T02:46:02.062Z,20.13
2018-11-21T02:48:32.312Z,19.17
2018-11-21T02:51:21.542Z,22.27
2018-11-21T02:53:51.406Z,20.57
2018-11-21T02:56:21.755Z,21.07
2018-11-21T02:58:51.706Z,18.83
2018-11-21T03:01:21.584Z,21.17
2018-11-21T03:03:51.485Z,20.87
2018-11-21T03:06:42.440Z,20.97
2018-11-21T03:09:12.382Z,20.87
2018-11-21T03:12:01.355Z,20.20
2018-11-21T03:14:32.314Z,21.63
2018-11-21T03:17:21.101Z,21.40
2018-11-21T03:19:51.448Z,21.17
2018-11-21T03:22:21.375Z,20.53
2018-11-21T03:24:51.332Z,21.30
2018-11-21T03:27:21.530Z,24.03
2018-11-21T03:29:51.412Z,21.17
2018-11-21T03:32:21.286Z,23.43
2018-11-21T03:34:51.294Z,23.60
2018-11-21T03:37:23.482Z,22.23
2018-11-21T03:39:53.748Z,22.93
2018-11-21T03:42:24.384Z,20.67
2018-11-21T03:44:54.492Z,19.10
2018-11-21T03:47:24.444Z,20.97
2018-11-21T03:49:54.459Z,21.63
2018-11-21T03:52:24.951Z,24.67
2018-11-21T03:54:55.099Z,24.97
2018-11-21T03:57:25.113Z,22.13
2018-11-21T03:59:55.114Z,26.30
2018-11-21T04:02:25.362Z,21.50
2018-11-21T04:04:55.456Z,22.57
2018-11-21T04:07:36.559Z,21.30
2018-11-21T04:10:10.049Z,20.50
2018-11-21T04:15:30.454Z,22.30
2018-11-21T04:18:02.619Z,20.93
2018-11-21T04:20:33.454Z,22.40
2018-11-21T04:23:03.519Z,22.63
2018-11-21T04:25:33.588Z,22.70
2018-11-21T04:28:04.227Z,23.00
2018-11-21T04:30:35.347Z,22.47
2018-11-21T04:36:13.542Z,23.63
2018-11-21T04:38:43.519Z,21.90
2018-11-21T04:41:13.407Z,22.20
2018-11-21T04:44:03.285Z,22.60
2018-11-21T04:46:38.012Z,22.73
2018-11-21T04:49:07.974Z,20.13
2018-11-21T04:51:37.962Z,23.90
2018-11-21T04:54:08.114Z,21.60
2018-11-21T04:56:37.997Z,20.80
2018-11-21T04:59:08.032Z,25.00
2018-11-21T05:01:38.334Z,22.10
2018-11-21T05:04:08.294Z,24.20
2018-11-21T05:06:38.328Z,22.03
2018-11-21T05:09:11.465Z,22.00
2018-11-21T05:11:41.496Z,22.53
2018-11-21T05:14:12.116Z,23.57
2018-11-21T05:16:41.937Z,23.73
2018-11-21T05:22:07.804Z,20.30
2018-11-21T05:24:37.970Z,24.03
2018-11-21T05:27:08.303Z,24.23
2018-11-21T05:29:38.318Z,24.00
2018-11-21T05:32:08.311Z,28.03
2018-11-21T05:34:39.114Z,24.47
2018-11-21T05:37:09.653Z,26.73
2018-11-21T05:39:40.980Z,24.43
2018-11-21T05:42:11.041Z,22.37
2018-11-21T05:44:41.545Z,24.80
2018-11-21T05:47:13.401Z,27.67
2018-11-21T05:49:43.606Z,28.10
2018-11-21T05:52:32.410Z,24.10
2018-11-21T05:55:03.379Z,28.03
2018-11-21T05:57:33.425Z,25.23
2018-11-21T06:00:03.484Z,26.70
2018-11-21T06:02:33.520Z,24.53
2018-11-21T06:05:03.460Z,25.83
2018-11-21T06:07:33.399Z,26.93
2018-11-21T06:10:04.483Z,23.77
2018-11-21T06:15:30.247Z,24.53
2018-11-21T06:18:00.452Z,27.93
2018-11-21T06:20:30.310Z,25.50
2018-11-21T06:23:00.332Z,23.27
2018-11-21T06:25:30.323Z,25.50
2018-11-21T06:28:00.378Z,30.90
2018-11-21T06:30:30.249Z,26.83
2018-11-21T06:33:00.653Z,24.37
2018-11-21T06:35:30.661Z,26.27
2018-11-21T06:38:19.725Z,25.97
2018-11-21T06:41:09.954Z,24.50
2018-11-21T06:43:40.306Z,26.93
2018-11-21T06:46:10.715Z,26.20
2018-11-21T06:48:41.258Z,29.23
2018-11-21T06:51:11.751Z,30.23
2018-11-21T06:53:42.267Z,29.70
2018-11-21T06:56:14.465Z,28.23
2018-11-21T06:58:44.752Z,26.53
2018-11-21T07:01:47.802Z,33.07
2018-11-21T07:04:36.688Z,34.33
2018-11-21T07:07:07.463Z,29.77
2018-11-21T07:09:37.633Z,32.60
2018-11-21T07:12:07.522Z,36.03
2018-11-21T07:14:37.414Z,28.33
2018-11-21T07:17:07.518Z,26.20
2018-11-21T07:19:37.551Z,27.43
2018-11-21T07:22:27.000Z,26.53
2018-11-21T07:24:57.395Z,29.80
2018-11-21T07:27:27.717Z,27.43
2018-11-21T07:29:57.640Z,30.17
2018-11-21T07:32:31.203Z,30.37
2018-11-21T07:35:01.073Z,31.03
2018-11-21T07:37:51.111Z,29.23
2018-11-21T07:40:22.174Z,27.97
2018-11-21T07:43:11.586Z,29.87
2018-11-21T07:45:41.455Z,27.77
2018-11-21T07:48:20.174Z,28.90
2018-11-21T07:50:44.242Z,27.17
2018-11-21T07:53:14.136Z,28.70
2018-11-21T07:55:44.084Z,28.13
2018-11-21T07:58:16.305Z,26.67
2018-11-21T08:01:07.877Z,27.20
2018-11-21T08:03:42.695Z,24.50
2018-11-21T08:09:30.858Z,29.80
2018-11-21T08:12:20.083Z,29.27
2018-11-21T08:15:08.613Z,28.33
2018-11-21T08:17:57.120Z,33.10
2018-11-21T08:20:45.690Z,28.93
2018-11-21T08:23:34.294Z,30.60
2018-11-21T08:26:22.767Z,27.50
2018-11-21T08:28:52.996Z,30.07
2018-11-21T08:31:22.933Z,29.87
2018-11-21T08:33:52.998Z,29.37
2018-11-21T08:36:41.581Z,27.83
2018-11-21T08:39:22.507Z,30.33
2018-11-21T08:42:03.615Z,24.83
2018-11-21T08:44:33.862Z,29.83
2018-11-21T08:47:04.070Z,30.40
2018-11-21T08:49:34.127Z,28.77
2018-11-21T08:52:04.711Z,30.97
2018-11-21T08:54:34.556Z,29.90
2018-11-21T08:57:04.512Z,29.53
2018-11-21T08:59:34.478Z,30.03
2018-11-21T09:02:24.807Z,28.43
2018-11-21T09:05:15.696Z,29.63
2018-11-21T09:07:45.631Z,31.40
2018-11-21T09:10:16.181Z,28.57
2018-11-21T09:12:46.184Z,27.00
2018-11-21T09:15:17.327Z,28.77
2018-11-21T09:17:47.802Z,29.87
2018-11-21T09:20:17.744Z,31.27
2018-11-21T09:23:06.626Z,31.20
2018-11-21T09:25:36.543Z,33.50
2018-11-21T09:28:06.473Z,29.67
2018-11-21T09:30:36.946Z,30.63
2018-11-21T09:33:07.262Z,26.67
2018-11-21T09:35:37.465Z,26.80
2018-11-21T09:38:07.735Z,30.10
2018-11-21T09:40:38.190Z,30.40
2018-11-21T09:43:09.203Z,30.27
2018-11-21T09:45:39.424Z,29.07
2018-11-21T09:48:09.390Z,32.27
2018-11-21T09:53:28.164Z,26.37
2018-11-21T09:56:00.476Z,32.43
2018-11-21T09:58:31.471Z,32.27
2018-11-21T10:01:39.260Z,28.70
2018-11-21T10:04:09.422Z,30.07
2018-11-21T10:06:41.495Z,32.50
2018-11-21T10:09:30.136Z,53.27
2018-11-21T10:12:00.104Z,36.23
2018-11-21T10:14:32.869Z,35.13
2018-11-21T10:17:02.716Z,35.80
2018-11-21T10:19:32.887Z,32.90
2018-11-21T10:22:16.193Z,39.10
2018-11-21T10:24:46.330Z,32.50
2018-11-21T10:27:16.235Z,26.23
2018-11-21T10:29:46.454Z,34.83
2018-11-21T10:32:16.482Z,29.67
2018-11-21T10:34:46.737Z,30.43
2018-11-21T10:37:16.591Z,28.37
2018-11-21T10:39:46.543Z,27.13
2018-11-21T10:42:16.824Z,25.33
2018-11-21T10:44:46.746Z,31.90
2018-11-21T10:47:16.774Z,31.83
2018-11-21T10:49:46.824Z,28.50
2018-11-21T10:52:16.696Z,39.27
2018-11-21T10:54:46.606Z,25.90
2018-11-21T10:57:16.549Z,28.23
2018-11-21T10:59:46.593Z,28.43
2018-11-21T11:02:35.067Z,26.67
2018-11-21T11:05:23.619Z,27.53
2018-11-21T11:08:12.212Z,28.80
2018-11-21T11:11:00.912Z,27.77
2018-11-21T11:13:49.787Z,28.93
2018-11-21T11:16:38.425Z,27.60
2018-11-21T11:19:26.991Z,28.67
2018-11-21T11:22:15.481Z,27.47
2018-11-21T11:25:04.143Z,33.63
2018-11-21T11:27:52.710Z,26.10
2018-11-21T11:30:41.298Z,27.37
2018-11-21T11:33:44.340Z,25.70
2018-11-21T11:36:51.900Z,22.23
2018-11-21T11:39:41.319Z,22.47
2018-11-21T11:42:29.949Z,26.10
2018-11-21T11:45:18.477Z,19.47
2018-11-21T11:48:07.014Z,20.80
2018-11-21T11:50:45.168Z,21.97
2018-11-21T11:53:33.792Z,25.27
2018-11-21T11:56:31.215Z,24.97
2018-11-21T11:59:19.820Z,24.93
2018-11-21T12:02:08.577Z,21.63
2018-11-21T12:04:57.153Z,22.77
2018-11-21T12:07:48.165Z,18.53
2018-11-21T12:10:36.986Z,20.97
2018-11-21T12:13:25.740Z,20.93
2018-11-21T12:16:26.485Z,20.50
2018-11-21T12:19:15.373Z,20.47
2018-11-21T12:22:03.995Z,21.53
2018-11-21T12:24:52.590Z,20.30
2018-11-21T12:27:42.326Z,19.43
2018-11-21T12:30:31.131Z,21.50
2018-11-21T12:33:20.107Z,20.60
2018-11-21T12:36:08.986Z,21.90
2018-11-21T12:38:57.396Z,22.73
2018-11-21T12:41:46.338Z,18.77
2018-11-21T12:44:34.030Z,20.57
2018-11-21T12:47:23.943Z,21.13
2018-11-21T12:50:12.528Z,20.73
2018-11-21T12:56:01.115Z,18.70
2018-11-21T12:58:49.653Z,19.80
2018-11-21T13:01:38.176Z,21.13
2018-11-21T13:04:26.651Z,20.90
2018-11-21T13:07:17.886Z,18.63
2018-11-21T13:10:25.454Z,18.40
2018-11-21T13:13:13.957Z,23.80
2018-11-21T13:16:02.714Z,24.17
2018-11-21T13:18:51.477Z,20.20
2018-11-21T13:21:58.914Z,20.77
2018-11-21T13:24:47.599Z,25.03
2018-11-21T13:27:36.144Z,20.77
2018-11-21T13:30:17.298Z,19.93
2018-11-21T13:36:30.546Z,23.13
2018-11-21T13:39:19.062Z,21.73
2018-11-21T13:42:07.504Z,23.40
2018-11-21T13:48:07.896Z,44.93
2018-11-21T13:50:56.857Z,21.63
2018-11-21T13:53:48.023Z,26.00
2018-11-21T13:56:19.957Z,26.47
2018-11-21T13:58:53.312Z,21.87
2018-11-21T14:01:23.199Z,24.43
2018-11-21T14:04:04.432Z,22.60
2018-11-21T14:06:37.231Z,23.87
2018-11-21T14:09:10.699Z,24.37
2018-11-21T14:11:40.542Z,26.70
2018-11-21T14:17:00.363Z,23.27
2018-11-21T14:19:30.400Z,28.13
2018-11-21T14:22:00.332Z,25.37
2018-11-21T14:24:31.048Z,24.10
2018-11-21T14:27:01.612Z,25.07
2018-11-21T14:29:31.552Z,20.50
2018-11-21T14:32:01.852Z,23.40
2018-11-21T14:34:43.131Z,25.00
2018-11-21T14:37:13.078Z,24.57
2018-11-21T14:42:30.460Z,23.23
2018-11-21T14:45:00.591Z,24.17
2018-11-21T14:47:30.476Z,25.77
2018-11-21T14:50:01.740Z,22.73
2018-11-21T14:52:31.844Z,26.10
2018-11-21T14:55:01.906Z,24.30
2018-11-21T14:57:32.093Z,27.70
2018-11-21T15:00:02.239Z,24.97
2018-11-21T15:02:50.903Z,28.23
2018-11-21T15:05:20.710Z,26.03
2018-11-21T15:07:50.670Z,26.27
2018-11-21T15:13:09.699Z,24.40
2018-11-21T15:15:39.541Z,24.00
2018-11-21T15:18:09.592Z,27.83
2018-11-21T15:20:58.576Z,24.80
2018-11-21T15:23:28.656Z,23.73
2018-11-21T15:25:58.696Z,24.77
2018-11-21T15:28:28.535Z,27.00
2018-11-21T15:30:58.941Z,27.43
2018-11-21T15:33:28.854Z,26.87
2018-11-21T15:35:59.059Z,26.50
2018-11-21T15:38:40.289Z,25.33
2018-11-21T15:41:10.425Z,25.90
2018-11-21T15:43:40.387Z,25.77
2018-11-21T15:46:50.428Z,25.37
2018-11-21T15:49:20.644Z,26.93
2018-11-21T15:51:50.875Z,24.07
2018-11-21T15:54:20.840Z,28.80
2018-11-21T16:00:01.797Z,29.97
2018-11-21T16:02:32.324Z,28.87
2018-11-21T16:05:02.443Z,29.30
2018-11-21T16:07:32.754Z,26.13
2018-11-21T16:10:02.711Z,28.30
2018-11-21T16:12:32.879Z,26.53
2018-11-21T16:15:02.997Z,27.70
2018-11-21T16:17:33.040Z,29.83
2018-11-21T16:20:05.460Z,26.97
2018-11-21T16:22:35.511Z,28.07
2018-11-21T16:25:24.180Z,27.50
2018-11-21T16:27:54.419Z,26.93
2018-11-21T16:30:25.788Z,29.07
2018-11-21T16:32:55.875Z,26.43
2018-11-21T16:35:25.942Z,27.70
2018-11-21T16:37:58.344Z,25.60
2018-11-21T16:40:30.028Z,28.53
2018-11-21T16:43:01.107Z,29.23
2018-11-21T16:45:33.227Z,28.70
2018-11-21T16:48:04.708Z,27.97
2018-11-21T16:50:34.958Z,30.50
2018-11-21T16:53:12.277Z,32.40
2018-11-21T16:55:42.172Z,30.80
2018-11-21T16:58:12.216Z,27.60
2018-11-21T17:00:42.985Z,27.87
2018-11-21T17:03:15.246Z,30.30
2018-11-21T17:06:04.003Z,29.67
2018-11-21T17:11:42.525Z,30.30
2018-11-21T17:14:31.709Z,28.13
2018-11-21T17:17:21.199Z,29.33
2018-11-21T17:20:03.325Z,29.80
2018-11-21T17:22:46.615Z,26.80
2018-11-21T17:25:19.848Z,27.70
2018-11-21T17:28:08.705Z,28.23
2018-11-21T17:30:40.177Z,28.13
2018-11-21T17:33:10.291Z,28.73
2018-11-21T17:35:40.724Z,30.70
2018-11-21T17:38:10.600Z,32.30
2018-11-21T17:40:42.233Z,28.90
2018-11-21T17:43:30.766Z,26.97
2018-11-21T17:46:12.171Z,31.40
2018-11-21T17:48:42.340Z,33.70
2018-11-21T17:51:12.525Z,31.93
2018-11-21T17:53:42.445Z,34.13
2018-11-21T17:56:12.749Z,32.10
2018-11-21T17:58:42.722Z,33.67
2018-11-21T18:01:12.598Z,32.27
2018-11-21T18:03:42.961Z,28.47
2018-11-21T18:06:13.198Z,28.83
2018-11-21T18:08:43.147Z,31.20
2018-11-21T18:11:13.235Z,28.93
2018-11-21T18:13:43.214Z,31.90
2018-11-21T18:16:31.798Z,28.20
2018-11-21T18:21:44.716Z,30.40
2018-11-21T18:24:33.927Z,29.67
2018-11-21T18:27:06.240Z,28.40
2018-11-21T18:29:36.294Z,30.73
2018-11-21T18:32:07.508Z,27.10
2018-11-21T18:34:37.784Z,28.33
2018-11-21T18:37:26.551Z,30.07
2018-11-21T18:39:56.523Z,28.90
2018-11-21T18:42:26.518Z,29.90
2018-11-21T18:45:36.544Z,28.70
2018-11-21T18:48:07.117Z,27.00
2018-11-21T18:50:37.528Z,32.20
2018-11-21T18:53:46.124Z,27.57
2018-11-21T18:56:53.790Z,28.50
2018-11-21T19:00:06.544Z,26.77
2018-11-21T19:02:36.609Z,26.60
2018-11-21T19:05:07.775Z,26.67
2018-11-21T19:07:38.106Z,28.00
2018-11-21T19:10:11.869Z,29.07
2018-11-21T19:12:41.838Z,27.77
2018-11-21T19:15:14.415Z,28.47
2018-11-21T19:20:51.746Z,31.37
2018-11-21T19:24:20.846Z,26.73
2018-11-21T19:27:31.318Z,26.80
2018-11-21T19:30:40.835Z,28.50
2018-11-21T19:33:32.594Z,26.10
2018-11-21T19:36:02.717Z,27.07
2018-11-21T19:38:32.973Z,27.97
2018-11-21T19:41:02.990Z,28.03
2018-11-21T19:43:33.251Z,28.87
2018-11-21T19:46:03.387Z,29.23
2018-11-21T19:48:33.510Z,29.00
2018-11-21T19:51:03.537Z,27.03
2018-11-21T19:53:33.642Z,29.93
2018-11-21T19:56:03.500Z,25.63
2018-11-21T19:58:35.235Z,27.40
2018-11-21T20:01:05.233Z,26.83
2018-11-21T20:03:42.725Z,27.10
2018-11-21T20:06:32.308Z,28.43
2018-11-21T20:09:03.588Z,27.70
2018-11-21T20:11:53.669Z,30.43
2018-11-21T20:14:37.595Z,29.10
2018-11-21T20:17:26.920Z,27.80
2018-11-21T20:19:57.122Z,27.73
2018-11-21T20:22:27.296Z,24.90
2018-11-21T20:28:04.146Z,26.73
2018-11-21T20:30:53.785Z,26.47
2018-11-21T20:33:24.040Z,28.23
2018-11-21T20:36:13.909Z,26.07
2018-11-21T20:38:45.559Z,27.03
2018-11-21T20:41:15.824Z,25.83
2018-11-21T20:43:46.061Z,27.10
2018-11-21T20:46:18.612Z,29.73
2018-11-21T20:51:45.007Z,22.93
2018-11-21T20:54:15.462Z,27.03
2018-11-21T20:56:45.661Z,24.07
2018-11-21T20:59:16.029Z,24.63
2018-11-21T21:01:46.184Z,25.50
2018-11-21T21:04:35.321Z,25.20
2018-11-21T21:07:13.280Z,26.73
2018-11-21T21:09:43.258Z,26.10
2018-11-21T21:12:13.823Z,25.23
2018-11-21T21:14:44.151Z,28.53
2018-11-21T21:17:33.451Z,28.83
2018-11-21T21:20:23.682Z,26.63
2018-11-21T21:22:58.065Z,25.43
2018-11-21T21:25:29.453Z,25.63
2018-11-21T21:28:18.633Z,27.17
2018-11-21T21:30:48.852Z,26.30
2018-11-21T21:33:18.923Z,25.63
2018-11-21T21:36:07.755Z,25.30
2018-11-21T21:38:37.827Z,25.97
2018-11-21T21:41:07.672Z,24.13
2018-11-21T21:43:37.934Z,24.53
2018-11-21T21:46:07.978Z,23.47
2018-11-21T21:48:37.841Z,23.13
2018-11-21T21:51:08.044Z,24.87
2018-11-21T21:53:38.041Z,24.03
2018-11-21T21:56:08.139Z,24.13
2018-11-21T21:58:38.105Z,24.30
2018-11-21T22:01:08.157Z,26.30
2018-11-21T22:03:38.318Z,25.73
2018-11-21T22:06:08.864Z,25.47
2018-11-21T22:08:38.864Z,24.13
2018-11-21T22:11:08.927Z,27.13
2018-11-21T22:13:38.958Z,24.73
2018-11-21T22:16:08.981Z,21.53
2018-11-21T22:18:57.934Z,23.70
2018-11-21T22:21:27.902Z,22.33
2018-11-21T22:23:58.332Z,22.23
2018-11-21T22:26:28.362Z,26.97
2018-11-21T22:28:58.579Z,23.93
2018-11-21T22:31:28.672Z,23.73
2018-11-21T22:33:59.100Z,24.17
2018-11-21T22:39:18.098Z,26.27
2018-11-21T22:41:49.446Z,25.10
2018-11-21T22:44:19.369Z,23.17
2018-11-21T22:46:49.376Z,21.83
2018-11-21T22:49:19.439Z,23.70
2018-11-21T22:51:49.415Z,21.17
2018-11-21T22:54:19.433Z,19.47
2018-11-21T22:56:49.503Z,21.47
2018-11-21T22:59:19.447Z,22.73
2018-11-21T23:01:49.370Z,17.97
2018-11-21T23:04:21.069Z,20.33
2018-11-21T23:06:50.912Z,21.20
2018-11-21T23:09:20.900Z,20.27
2018-11-21T23:12:02.377Z,18.27
2018-11-21T23:14:32.501Z,20.03
2018-11-21T23:19:47.765Z,20.57
2018-11-21T23:22:17.853Z,21.17
2018-11-21T23:24:47.984Z,20.77
2018-11-21T23:27:18.096Z,21.17
2018-11-21T23:30:07.938Z,21.23
2018-11-21T23:35:20.730Z,21.13
2018-11-21T23:37:50.693Z,21.50
2018-11-21T23:40:20.650Z,21.53
2018-11-21T23:42:51.625Z,19.70
2018-11-21T23:45:21.711Z,20.07
2018-11-21T23:47:51.735Z,21.23
2018-11-21T23:50:21.764Z,17.93
2018-11-21T23:52:51.643Z,20.97
2018-11-21T23:55:21.674Z,20.50
2018-11-21T23:57:52.607Z,20.17
